Time;durP1;ratioP1;P1;durP2;ratioP2;P2;SDS_P1;SDS_P2;PMS_P1;PMS_P2;Temp;Humidity;BMP_temperature;BMP_pressure;BME280_temperature;BME280_humidity;BME280_pressure;Samples;Min_cycle;Max_cycle;Signal;HPM_P1;HPM_P2
2023/10/12 00:01:24;;;;;;;6.28;3.95;;;;;;;5.44;87.77;98469.13;5077152;28;20412;-72
2023/10/12 00:03:55;;;;;;;12.80;4.35;;;;;;;5.48;87.29;98455.63;5026015;28;20048;-70
2023/10/12 00:06:23;;;;;;;8.07;4.18;;;;;;;5.38;85.40;98475.72;5077159;28;20046;-74
2023/10/12 00:08:48;;;;;;;7.72;3.45;;;;;;;5.55;85.48;98450.72;5077369;28;20397;-75
2023/10/12 00:11:19;;;;;;;10.98;4.57;;;;;;;;;;5077571;28;20039;-68
2023/10/12 00:13:44;;;;;;;7.63;4.35;;;;;;;5.62;nan;98430.88;5077049;28;20039;-70
2023/10/12 00:16:09;;;;;;;5.90;4.03;;;;;;;5.63;nan;98432.56;5058242;28;20066;-70
2023/10/12 00:18:35;;;;;;;6.05;3.60;;;;;;;5.75;nan;98473.16;5038676;28;20070;-70
2023/10/12 00:21:05;;;;;;;6.30;2.95;;;;;;;5.90;nan;98440.34;5000472;28;20044;-71
2023/10/12 00:23:37;;;;;;;6.97;4.00;;;;;;;5.84;82.55;98446.06;5143622;27;20173;-71
2023/10/12 00:26:06;;;;;;;8.20;3.47;;;;;;;5.93;83.37;98468.38;5113571;27;20085;-71
2023/10/12 00:28:38;;;;;;;8.70;4.18;;;;;;;5.72;83.26;98410.75;5006125;28;20426;-70
2023/10/12 00:31:07;;;;;;;8.00;3.92;;;;;;;5.75;84.46;98418.47;5047338;28;20058;-72
2023/10/12 00:33:32;;;;;;;7.93;4.38;;;;;;;5.48;86.61;98392.19;5070402;28;20035;-70
2023/10/12 00:36:04;;;;;;;6.88;3.88;;;;;;;5.43;87.55;98420.72;5035695;28;20525;-70
2023/10/12 00:38:30;;;;;;;5.70;3.70;;;;;;;5.43;88.92;98367.84;5043416;28;20043;-70
2023/10/12 00:41:03;;;;;;;11.18;5.32;;;;;;;5.27;89.41;98355.84;5069335;28;20047;-72
2023/10/12 00:43:36;;;;;;;6.05;3.83;;;;;;;5.29;90.23;98349.50;5056329;28;20067;-72
2023/10/12 00:46:58;;;;;;;7.50;4.32;;;;;;;5.22;91.13;98327.09;5067456;28;20409;-75
2023/10/12 00:49:13;;;;;;;8.18;2.72;;;;;;;5.41;91.19;98319.56;5077108;28;20463;-73
2023/10/12 00:51:35;;;;;;;7.18;4.00;;;;;;;5.43;90.82;98325.56;5060361;28;20043;-76
2023/10/12 00:54:00;;;;;;;11.55;4.65;;;;;;;5.41;90.66;98348.66;5070229;28;20035;-74
2023/10/12 00:56:28;;;;;;;9.60;4.47;;;;;;;5.40;91.24;98372.53;5038521;28;20046;-75
2023/10/12 00:58:55;;;;;;;11.57;5.05;;;;;;;5.42;91.68;98381.19;5070924;28;20048;-75
2023/10/12 01:01:20;;;;;;;8.07;3.83;;;;;;;5.51;91.58;98379.72;5052739;28;20040;-75
2023/10/12 01:03:47;;;;;;;7.97;4.20;;;;;;;5.58;90.92;98381.78;5070189;28;20035;-72
2023/10/12 01:06:27;;;;;;;9.48;4.03;;;;;;;5.50;91.21;98380.66;5047394;28;20051;-73
2023/10/12 01:08:57;;;;;;;12.38;6.07;;;;;;;5.57;90.82;98373.97;5084666;28;20037;-73
2023/10/12 01:11:26;;;;;;;8.40;4.68;;;;;;;5.61;90.65;98375.44;5072210;28;20036;-71
2023/10/12 01:14:09;;;;;;;7.88;4.15;;;;;;;5.68;89.82;98352.91;5053848;28;20869;-75
2023/10/12 01:19:16;;;;;;;9.75;4.80;;;;;;;5.79;89.73;98352.97;5059464;28;20048;-77
2023/10/12 01:21:43;;;;;;;6.20;4.10;;;;;;;5.94;88.71;98325.44;5075908;28;20502;-77
2023/10/12 01:24:11;;;;;;;8.40;4.50;;;;;;;5.89;88.16;98327.56;5054991;28;20047;-69
2023/10/12 01:26:38;;;;;;;10.98;5.25;;;;;;;5.96;87.10;98326.19;5070781;28;20051;-69
2023/10/12 01:29:03;;;;;;;9.13;4.55;;;;;;;6.17;87.28;98321.94;5070955;28;20051;-69
2023/10/12 01:31:29;;;;;;;6.70;4.00;;;;;;;6.14;85.88;98310.72;5035634;28;20052;-69
2023/10/12 01:33:57;;;;;;;8.50;4.40;;;;;;;6.13;84.60;98301.94;5045441;28;20044;-70
2023/10/12 01:36:23;;;;;;;8.38;4.10;;;;;;;6.27;85.19;98300.06;5019699;28;20040;-75
2023/10/12 01:38:50;;;;;;;6.72;4.03;;;;;;;6.22;85.03;98308.34;5026710;28;20063;-74
2023/10/12 01:41:26;;;;;;;5.00;3.60;;;;;;;6.41;84.70;98324.53;5020673;28;20051;-73
2023/10/12 01:43:52;;;;;;;7.07;3.90;;;;;;;6.30;84.13;98321.03;5017932;28;20044;-74
2023/10/12 01:46:21;;;;;;;8.35;3.85;;;;;;;6.38;84.00;98318.63;5057758;28;20036;-76
2023/10/12 01:48:49;;;;;;;8.82;4.22;;;;;;;6.42;84.55;98273.28;5054519;28;20043;-72
2023/10/12 01:51:24;;;;;;;7.25;3.70;;;;;;;6.44;84.01;98276.66;5057047;28;20040;-72
2023/10/12 01:53:49;;;;;;;9.13;4.30;;;;;;;6.50;83.42;98259.47;5042193;28;20401;-72
2023/10/12 01:56:15;;;;;;;7.75;4.03;;;;;;;6.52;82.72;98278.72;5039184;28;20047;-73
2023/10/12 01:58:43;;;;;;;7.43;4.18;;;;;;;6.39;81.90;98262.94;5039401;28;20046;-71
2023/10/12 02:01:13;;;;;;;5.75;4.13;;;;;;;6.47;81.44;98217.34;5012243;28;20048;-71
2023/10/12 02:03:42;;;;;;;8.30;3.83;;;;;;;6.47;81.39;98249.94;5016362;28;20417;-72
2023/10/12 02:06:16;;;;;;;10.63;4.13;;;;;;;6.51;81.45;98251.41;5036908;28;20055;-70
2023/10/12 02:08:46;;;;;;;7.03;4.38;;;;;;;6.58;80.70;98251.75;5057218;28;20501;-70
2023/10/12 02:13:50;;;;;;;7.60;3.70;;;;;;;6.69;80.05;98225.28;5055561;28;20078;-71
2023/10/12 02:16:52;;;;;;;8.68;4.70;;;;;;;6.72;80.75;98222.41;5055914;28;20402;-75
2023/10/12 02:19:19;;;;;;;7.57;4.03;;;;;;;6.88;79.76;98224.72;5035833;28;20056;-77
2023/10/12 02:21:46;;;;;;;7.32;4.00;;;;;;;6.84;80.04;98216.16;5018170;28;20140;-76
2023/10/12 02:24:13;;;;;;;7.43;4.30;;;;;;;6.92;79.83;98244.66;5038477;28;20399;-75
2023/10/12 02:26:41;;;;;;;8.13;4.30;;;;;;;6.93;79.99;98219.88;5036433;28;20051;-76
2023/10/12 02:34:31;;;;;;;10.15;4.25;;;;;;;6.87;79.04;98230.97;5034256;28;20037;-72
2023/10/12 02:39:42;;;;;;;5.85;3.83;;;;;;;6.96;79.67;98174.59;5035618;28;20493;-68
2023/10/12 02:47:24;;;;;;;7.35;4.55;;;;;;;6.99;79.09;98181.47;5035479;28;20044;-71
2023/10/12 02:50:00;;;;;;;10.63;4.93;;;;;;;6.99;78.70;98160.25;5041219;28;20048;-71
2023/10/12 02:52:27;;;;;;;9.40;5.18;;;;;;;6.95;78.45;98158.81;5043259;28;20048;-72
2023/10/12 02:54:55;;;;;;;7.63;4.95;;;;;;;7.00;78.46;98151.34;5049804;28;20052;-72
2023/10/12 02:57:28;;;;;;;13.13;5.05;;;;;;;7.12;78.22;98134.44;5046464;28;20040;-72
2023/10/12 03:00:05;;;;;;;11.55;4.85;;;;;;;6.98;77.97;98132.94;5047751;28;20059;-71
2023/10/12 03:02:33;;;;;;;10.13;4.40;;;;;;;6.97;77.58;98111.84;5009843;28;20045;-71
2023/10/12 03:05:03;;;;;;;10.50;4.32;;;;;;;6.95;77.51;98114.63;5023854;28;20072;-70
2023/10/12 03:07:29;;;;;;;10.93;4.88;;;;;;;7.00;77.76;98117.72;5013948;28;20059;-70
2023/10/12 03:09:58;;;;;;;8.48;4.70;;;;;;;7.08;77.97;98128.56;5021765;28;20094;-70
2023/10/12 03:12:25;;;;;;;7.93;4.40;;;;;;;7.12;78.24;98145.03;5014950;28;20064;-71
2023/10/12 03:14:51;;;;;;;10.68;5.97;;;;;;;7.12;78.10;98123.84;5030328;28;20058;-70
2023/10/12 03:17:20;;;;;;;10.18;4.80;;;;;;;7.13;77.71;98118.41;5034345;28;20049;-70
2023/10/12 03:19:56;;;;;;;8.75;4.82;;;;;;;7.21;78.48;98128.41;5034352;28;20071;-70
2023/10/12 03:22:31;;;;;;;5.90;3.25;;;;;;;7.35;78.07;98127.25;5034215;28;20071;-71
2023/10/12 03:25:05;;;;;;;8.73;4.97;;;;;;;7.16;78.43;98119.97;5034250;28;20048;-70
2023/10/12 03:27:33;;;;;;;14.00;6.05;;;;;;;7.07;77.93;98126.03;5034050;28;20106;-71
2023/10/12 03:30:08;;;;;;;6.18;3.20;;;;;;;7.22;78.17;98087.69;5034033;28;20044;-72
2023/10/12 03:32:33;;;;;;;;;;;;;;;7.29;77.20;98087.03;5017706;28;20037;-71
2023/10/12 03:34:58;;;;;;;10.15;5.38;;;;;;;7.25;77.55;98087.41;5035299;28;19938;-72
2023/10/12 18:18:14;;;;;;;3.25;1.80;;;;;;;10.98;86.72;97864.19;4951506;23;20071;-73
2023/10/12 18:20:45;;;;;;;4.95;1.63;;;;;;;10.96;86.33;97856.34;4927727;28;20484;-72
2023/10/12 18:23:11;;;;;;;2.70;1.77;;;;;;;10.98;85.72;97858.84;4918343;28;20058;-71
2023/10/12 18:25:38;;;;;;;3.20;1.73;;;;;;;11.00;85.59;97862.22;4914662;28;20054;-74
2023/10/12 18:28:03;;;;;;;3.97;1.77;;;;;;;11.06;85.34;97861.59;4928684;28;20042;-70
2023/10/12 18:30:28;;;;;;;3.33;2.55;;;;;;;11.07;85.07;97880.09;4940177;28;20057;-75
2023/10/12 18:32:55;;;;;;;2.50;1.30;;;;;;;11.06;83.88;97867.75;4955402;28;20513;-75
2023/10/12 18:35:20;;;;;;;3.72;2.20;;;;;;;11.06;83.49;97873.06;4939576;28;20038;-75
2023/10/12 18:37:46;;;;;;;4.80;2.08;;;;;;;11.04;83.22;97869.75;4940022;28;20489;-73
2023/10/12 18:40:16;;;;;;;6.53;3.03;;;;;;;11.00;83.02;97868.38;4948760;28;20027;-73
2023/10/12 18:42:41;;;;;;;3.92;1.65;;;;;;;10.98;83.06;97875.69;4918226;28;20066;-72
2023/10/12 18:45:07;;;;;;;4.43;2.08;;;;;;;11.00;83.07;97868.38;4932128;28;20374;-71
2023/10/12 18:47:34;;;;;;;2.83;1.63;;;;;;;11.03;82.86;97900.06;4943279;28;20046;-71
2023/10/12 18:50:01;;;;;;;3.72;2.38;;;;;;;11.08;83.76;97870.25;4950961;28;20047;-70
2023/10/12 18:52:27;;;;;;;2.10;1.38;;;;;;;11.10;82.73;97884.28;4948001;28;20074;-68
2023/10/12 18:54:55;;;;;;;2.10;1.85;;;;;;;11.06;81.23;97889.06;4951611;28;20050;-70
2023/10/12 18:57:20;;;;;;;2.78;1.65;;;;;;;11.12;80.58;97883.13;4952331;28;20049;-69
2023/10/12 18:59:47;;;;;;;3.33;1.60;;;;;;;11.14;80.59;97907.81;4939437;28;20038;-69
2023/10/12 19:02:13;;;;;;;2.80;1.90;;;;;;;11.22;81.00;97878.53;4938239;28;20046;-69
2023/10/12 19:04:39;;;;;;;4.43;2.15;;;;;;;11.19;79.94;97838.81;4938120;28;20055;-70
2023/10/12 19:07:04;;;;;;;3.97;2.13;;;;;;;11.22;79.00;97877.69;4937745;28;20449;-69
2023/10/12 19:09:30;;;;;;;4.57;1.85;;;;;;;11.24;78.93;97876.56;4919760;28;20051;-70
2023/10/12 19:11:55;;;;;;;4.68;1.75;;;;;;;11.25;78.76;97885.38;4937871;28;20535;-69
2023/10/12 19:14:20;;;;;;;2.67;2.05;;;;;;;11.24;77.53;97892.56;4936183;28;20051;-69
2023/10/12 19:16:46;;;;;;;2.25;1.77;;;;;;;11.25;77.77;97896.06;4936041;28;20070;-70
2023/10/12 19:19:11;;;;;;;4.00;1.60;;;;;;;11.21;77.40;97895.53;4937319;28;20528;-70
2023/10/12 19:21:37;;;;;;;4.22;1.48;;;;;;;11.21;77.30;97889.34;4937365;28;20405;-69
2023/10/12 19:24:06;;;;;;;3.88;1.40;;;;;;;11.23;77.50;97895.38;4937286;28;20046;-70
2023/10/12 19:26:32;;;;;;;3.03;1.77;;;;;;;11.20;77.08;97896.53;4936188;28;20046;-69
2023/10/12 19:29:03;;;;;;;5.47;2.17;;;;;;;11.21;76.58;97908.88;4936661;28;20050;-70
2023/10/12 19:31:30;;;;;;;3.05;2.38;;;;;;;11.21;76.93;97902.69;4936223;28;20050;-69
2023/10/12 19:33:55;;;;;;;3.53;2.03;;;;;;;11.23;76.96;97903.38;4930679;28;20047;-71
2023/10/12 19:36:21;;;;;;;3.70;1.92;;;;;;;11.24;76.90;97897.06;4919757;28;20043;-72
2023/10/12 19:38:48;;;;;;;5.20;1.90;;;;;;;11.27;76.51;97896.75;4932187;28;20054;-68
2023/10/12 19:41:16;;;;;;;8.32;1.83;;;;;;;11.27;76.52;97929.59;4930400;28;20042;-69
2023/10/12 19:43:42;;;;;;;8.15;2.10;;;;;;;11.26;76.82;97895.06;4935649;28;20042;-70
2023/10/12 19:46:09;;;;;;;4.05;1.70;;;;;;;11.22;76.37;97910.53;4931507;28;20493;-73
2023/10/12 19:48:35;;;;;;;5.90;2.20;;;;;;;11.16;75.44;97900.50;4930586;28;20054;-72
2023/10/12 19:51:15;;;;;;;7.80;3.08;;;;;;;11.13;75.48;97906.16;4932337;28;20055;-72
2023/10/12 19:53:42;;;;;;;6.50;1.95;;;;;;;10.99;75.58;97919.19;4935455;28;20409;-72
2023/10/12 19:56:21;;;;;;;3.67;1.92;;;;;;;10.89;76.54;97897.94;4937165;28;20046;-68
2023/10/12 19:58:48;;;;;;;7.72;2.30;;;;;;;10.73;76.26;97913.78;4926672;28;20065;-70
2023/10/12 20:01:19;;;;;;;6.05;2.10;;;;;;;10.59;76.18;97911.69;4903587;28;20516;-70
2023/10/12 20:03:48;;;;;;;6.03;2.22;;;;;;;10.47;76.09;97911.91;4932320;28;20074;-71
2023/10/12 20:06:14;;;;;;;3.15;2.13;;;;;;;10.35;76.41;97915.78;4948044;28;20051;-72
2023/10/12 20:08:39;;;;;;;3.05;1.90;;;;;;;10.27;77.33;97923.66;4932202;28;20051;-69
2023/10/12 20:11:11;;;;;;;4.60;1.70;;;;;;;10.22;76.82;97915.28;4926448;28;20062;-72
2023/10/12 20:13:39;;;;;;;8.27;2.47;;;;;;;10.14;76.64;97923.16;4933432;28;20057;-73
2023/10/12 20:16:06;;;;;;;2.90;1.92;;;;;;;10.06;76.99;97909.72;4950929;28;20050;-71
2023/10/12 20:18:32;;;;;;;3.20;1.80;;;;;;;10.03;76.76;97902.06;4934532;28;20055;-69
2023/10/12 20:20:58;;;;;;;4.65;1.67;;;;;;;9.97;77.12;97906.13;4933863;28;20509;-71
2023/10/12 20:23:24;;;;;;;5.43;2.40;;;;;;;9.90;76.79;97905.06;4933186;28;20501;-71
2023/10/12 20:25:51;;;;;;;3.67;1.55;;;;;;;9.87;77.20;97899.19;4931199;28;20876;-73
2023/10/12 20:28:19;;;;;;;3.00;2.00;;;;;;;9.83;77.58;97891.50;4935324;28;20057;-71
2023/10/12 20:30:47;;;;;;;3.95;2.05;;;;;;;9.83;77.74;97903.97;4931273;28;20038;-69
2023/10/12 20:33:14;;;;;;;5.57;1.60;;;;;;;9.79;77.66;97897.28;4932734;28;20389;-72
2023/10/12 20:35:40;;;;;;;4.88;1.50;;;;;;;9.76;77.73;97909.03;4935545;28;20049;-69
2023/10/12 20:38:11;;;;;;;2.40;2.05;;;;;;;9.74;77.71;97915.50;4936254;28;20050;-70
2023/10/12 20:40:46;;;;;;;2.90;1.90;;;;;;;9.73;77.59;97929.78;4934679;28;20046;-72
2023/10/12 20:43:15;;;;;;;5.40;2.10;;;;;;;9.74;77.94;97908.34;4936851;28;20058;-70
2023/10/12 20:45:43;;;;;;;4.40;1.67;;;;;;;9.80;77.91;97914.91;4910709;28;20051;-70
2023/10/12 20:48:10;;;;;;;7.30;2.42;;;;;;;9.87;77.40;97909.84;4917029;28;20047;-69
2023/10/12 20:50:39;;;;;;;2.90;1.80;;;;;;;9.99;77.86;97919.31;4935854;28;20047;-72
2023/10/12 20:53:11;;;;;;;3.88;2.42;;;;;;;10.08;77.23;97913.09;4921257;28;20065;-72
2023/10/12 20:55:49;;;;;;;4.57;2.10;;;;;;;10.14;77.78;97912.50;4935151;28;20062;-74
2023/10/12 20:58:23;;;;;;;4.50;2.45;;;;;;;10.10;77.67;97919.09;4902091;28;20055;-70
2023/10/12 21:01:00;;;;;;;6.60;2.20;;;;;;;10.02;78.48;97905.72;4909338;28;20046;-71
2023/10/12 21:03:36;;;;;;;2.08;1.85;;;;;;;10.08;79.10;97902.44;4946663;28;20054;-69
2023/10/12 21:06:08;;;;;;;3.38;2.20;;;;;;;10.06;79.32;97904.41;4900803;29;20406;-69
2023/10/12 21:08:42;;;;;;;3.92;2.10;;;;;;;10.01;80.34;97896.03;4908916;28;20050;-71
2023/10/12 21:11:18;;;;;;;4.78;2.50;;;;;;;9.95;81.23;97912.59;4911439;29;20051;-68
2023/10/12 21:13:47;;;;;;;6.63;2.85;;;;;;;9.88;82.39;97911.50;4932116;28;20051;-71
2023/10/12 21:16:15;;;;;;;6.90;2.40;;;;;;;9.84;82.94;97884.34;4920229;29;20051;-71
2023/10/12 21:18:42;;;;;;;6.03;2.38;;;;;;;9.75;83.49;97902.03;4918989;28;20055;-69
2023/10/12 21:21:30;;;;;;;4.78;2.08;;;;;;;9.69;84.66;97907.97;4915756;29;20058;-73
2023/10/12 21:23:56;;;;;;;2.65;2.10;;;;;;;9.62;85.77;97914.00;4913500;28;20055;-69
2023/10/12 21:26:26;;;;;;;3.78;1.90;;;;;;;9.59;86.43;97917.81;4916361;29;20035;-71
2023/10/12 21:29:11;;;;;;;3.28;2.25;;;;;;;9.62;86.64;97917.50;4901356;29;20063;-68
2023/10/12 21:31:39;;;;;;;;;;;;;;;9.83;86.16;97915.44;4901817;29;20047;-68
2023/10/12 21:34:06;;;;;;;5.43;2.08;;;;;;;9.83;85.30;97910.13;4912765;28;20281;-70
2023/10/12 21:36:43;;;;;;;6.03;2.40;;;;;;;9.89;86.16;97919.34;4929712;28;20043;-69
2023/10/12 21:39:11;;;;;;;6.63;2.42;;;;;;;9.93;86.82;97931.38;4906818;28;20075;-70
2023/10/12 21:41:40;;;;;;;6.10;2.03;;;;;;;9.95;87.73;97918.75;4902971;29;20054;-70
2023/10/12 21:44:10;;;;;;;4.50;2.10;;;;;;;10.00;88.56;97968.91;4919726;28;20059;-70
2023/10/12 21:46:39;;;;;;;8.90;2.28;;;;;;;10.02;88.58;97924.34;4917989;28;20063;-70
2023/10/12 21:49:09;;;;;;;4.65;2.83;;;;;;;10.02;88.27;97913.69;4919535;28;20051;-70
2023/10/12 21:51:35;;;;;;;5.65;2.10;;;;;;;10.00;88.37;97920.97;4933545;28;20051;-70
2023/10/12 21:54:06;;;;;;;5.15;1.95;;;;;;;9.98;89.11;97928.28;4934587;28;20070;-70
2023/10/12 21:56:32;;;;;;;5.78;2.03;;;;;;;9.98;89.02;97922.94;4934412;28;20124;-70
2023/10/12 21:58:58;;;;;;;4.25;2.50;;;;;;;9.98;88.85;97922.94;4927208;28;20046;-70
2023/10/12 22:01:29;;;;;;;7.00;2.25;;;;;;;9.92;88.88;97935.03;4923660;28;20047;-70
2023/10/12 22:03:59;;;;;;;3.40;2.25;;;;;;;9.89;88.86;97927.34;4918675;28;20051;-71
2023/10/12 22:06:29;;;;;;;3.63;2.28;;;;;;;9.83;88.92;97925.25;4919507;28;20046;-70
2023/10/12 22:08:57;;;;;;;4.45;2.00;;;;;;;9.83;88.53;97926.09;4916042;28;20047;-76
2023/10/12 22:11:28;;;;;;;4.60;2.28;;;;;;;9.70;88.86;97946.91;4917971;28;20059;-70
2023/10/12 22:14:23;;;;;;;5.68;2.80;;;;;;;9.57;90.14;97929.56;4938633;28;20405;-71
2023/10/12 22:16:49;;;;;;;6.82;1.90;;;;;;;9.55;90.07;97926.22;4936444;28;20043;-69
2023/10/12 22:19:18;;;;;;;10.45;2.33;;;;;;;9.49;89.83;97927.63;4937509;28;20046;-70
2023/10/12 22:21:46;;;;;;;6.15;2.72;;;;;;;9.37;90.52;97918.13;4937412;28;20059;-72
2023/10/12 22:24:12;;;;;;;11.25;3.55;;;;;;;9.29;91.20;97926.00;4938196;28;20054;-72
2023/10/12 22:26:40;;;;;;;7.82;3.15;;;;;;;9.20;91.96;97958.75;4899310;29;20055;-72
2023/10/12 22:29:13;;;;;;;6.55;3.30;;;;;;;9.17;93.19;97933.28;4899371;29;20051;-68
2023/10/12 22:31:45;;;;;;;13.15;4.15;;;;;;;9.12;92.88;97934.72;4927150;28;20053;-68
2023/10/12 22:34:17;;;;;;;10.18;5.43;;;;;;;9.09;94.23;97927.84;4938348;28;20046;-69
2023/10/12 22:36:46;;;;;;;11.70;4.53;;;;;;;9.17;94.78;97937.78;4929607;28;20054;-70
2023/10/12 22:39:15;;;;;;;13.40;3.38;;;;;;;9.25;95.40;97929.94;4917653;29;20055;-70
2023/10/12 22:41:44;;;;;;;5.07;2.97;;;;;;;9.35;94.86;97931.59;4918383;28;20532;-73
2023/10/12 22:44:09;;;;;;;8.43;2.58;;;;;;;9.44;94.08;97932.56;4917811;29;20051;-71
2023/10/12 22:46:35;;;;;;;4.30;2.60;;;;;;;9.49;93.10;97932.94;4917882;29;20410;-70
2023/10/12 22:49:00;;;;;;;9.35;2.70;;;;;;;9.58;92.38;97923.28;4925319;28;20054;-73
2023/10/12 22:51:26;;;;;;;5.82;2.45;;;;;;;9.61;91.53;97933.59;4937967;28;20054;-71
2023/10/12 22:53:51;;;;;;;4.45;2.03;;;;;;;9.59;90.32;97940.91;4920401;28;20047;-70
2023/10/12 22:56:17;;;;;;;6.25;1.63;;;;;;;9.61;90.33;97941.59;4937819;28;20043;-71
2023/10/12 22:58:42;;;;;;;4.32;2.00;;;;;;;9.57;90.22;97921.59;4937749;28;20051;-70
2023/10/12 23:01:10;;;;;;;3.15;1.85;;;;;;;9.50;89.38;97928.47;4937476;28;20497;-69
2023/10/12 23:03:36;;;;;;;7.15;2.38;;;;;;;9.44;89.56;97945.84;4935217;28;20066;-71
2023/10/12 23:06:04;;;;;;;2.53;1.45;;;;;;;9.43;89.93;97930.88;4937536;28;20053;-71
2023/10/12 23:08:31;;;;;;;2.88;1.98;;;;;;;9.38;89.74;97957.03;4932100;28;20047;-71
2023/10/12 23:11:04;;;;;;;7.25;2.28;;;;;;;9.35;89.87;97931.59;4911239;28;20437;-70
2023/10/12 23:13:31;;;;;;;6.97;2.27;;;;;;;9.46;90.09;97933.25;4927212;28;20050;-70
2023/10/12 23:15:57;;;;;;;3.00;2.38;;;;;;;9.51;89.90;97941.63;4917247;28;20314;-71
2023/10/12 23:18:24;;;;;;;5.18;1.95;;;;;;;9.54;89.25;97941.34;4927661;28;20505;-70
2023/10/12 23:21:01;;;;;;;3.70;1.50;;;;;;;9.65;88.97;97935.00;4919768;28;20122;-71
2023/10/12 23:23:26;;;;;;;2.05;1.30;;;;;;;9.73;88.29;97951.06;4920386;28;20050;-69
2023/10/12 23:25:52;;;;;;;7.60;2.08;;;;;;;9.76;88.20;97940.97;4920338;28;20057;-70
2023/10/12 23:28:18;;;;;;;4.38;2.08;;;;;;;9.65;87.54;97949.16;4934019;28;20505;-67
2023/10/12 23:30:51;;;;;;;7.00;2.33;;;;;;;9.68;87.17;97951.53;4917040;29;20078;-68
2023/10/12 23:33:33;;;;;;;3.92;1.80;;;;;;;9.66;86.79;97955.31;4915896;29;20043;-71
2023/10/12 23:36:00;;;;;;;2.63;1.73;;;;;;;9.58;86.79;97957.84;4917915;28;20047;-72
2023/10/12 23:38:26;;;;;;;7.03;1.77;;;;;;;9.50;86.73;97986.97;4916249;29;20039;-70
2023/10/12 23:41:43;;;;;;;5.65;2.38;;;;;;;9.41;86.90;97946.97;4925055;28;20046;-68
2023/10/12 23:43:52;;;;;;;1.58;1.48;;;;;;;9.32;87.02;97969.09;4935788;28;20081;-69
2023/10/12 23:46:22;;;;;;;4.10;1.75;;;;;;;9.23;87.24;97969.13;4937998;28;20121;-68
2023/10/12 23:48:57;;;;;;;3.85;1.88;;;;;;;9.13;87.59;97965.63;4942534;28;20050;-72
2023/10/12 23:51:32;;;;;;;6.88;2.95;;;;;;;9.06;88.60;97974.16;4941173;28;20046;-72
2023/10/12 23:54:18;;;;;;;6.32;2.25;;;;;;;8.98;88.57;97982.00;4936060;28;20054;-72
2023/10/12 23:57:10;;;;;;;6.13;2.33;;;;;;;8.97;88.88;97963.53;4935649;28;20453;-72
2023/10/12 23:59:36;;;;;;;2.85;1.67;;;;;;;8.93;89.21;97968.28;4936025;28;20050;-74
